Time;durP1;ratioP1;P1;durP2;ratioP2;P2;SDS_P1;SDS_P2;PMS_P1;PMS_P2;Temp;Humidity;BMP_temperature;BMP_pressure;BME280_temperature;BME280_humidity;BME280_pressure;Samples;Min_cycle;Max_cycle;Signal;HPM_P1;HPM_P2
2022/07/13 00:01:05;;;;;;;2.78;2.40;;;20.20;99.90;;;;;;5076301;28;20064;-75
2022/07/13 00:03:31;;;;;;;2.95;2.35;;;20.20;99.90;;;;;;5074976;28;20111;-75
2022/07/13 00:05:57;;;;;;;3.53;2.83;;;20.20;99.90;;;;;;5076217;28;20055;-74
2022/07/13 00:08:23;;;;;;;3.67;3.00;;;20.20;99.90;;;;;;5076164;28;20132;-75
2022/07/13 00:10:49;;;;;;;3.38;2.88;;;20.30;99.90;;;;;;5076087;28;20105;-74
2022/07/13 00:13:14;;;;;;;3.22;2.67;;;20.30;99.90;;;;;;5075885;28;20041;-74
2022/07/13 00:15:40;;;;;;;4.53;2.75;;;20.30;99.90;;;;;;5076441;28;20067;-74
2022/07/13 00:18:06;;;;;;;4.03;2.70;;;20.30;99.90;;;;;;5075909;28;20040;-74
2022/07/13 00:20:31;;;;;;;4.20;3.00;;;20.30;99.90;;;;;;5075862;28;20091;-75
2022/07/13 00:22:57;;;;;;;3.15;2.67;;;20.30;99.90;;;;;;5074938;28;20084;-75
2022/07/13 00:25:23;;;;;;;3.75;2.60;;;20.30;99.90;;;;;;5075841;28;20490;-75
2022/07/13 00:27:49;;;;;;;3.53;2.80;;;20.30;99.90;;;;;;5075773;28;20066;-75
2022/07/13 00:30:15;;;;;;;3.70;2.90;;;20.30;99.90;;;;;;5075775;28;20052;-74
2022/07/13 00:32:41;;;;;;;4.47;2.80;;;20.40;99.90;;;;;;5075916;28;20033;-75
2022/07/13 00:35:07;;;;;;;4.35;2.83;;;20.40;99.90;;;;;;5074999;28;20466;-74
2022/07/13 00:37:33;;;;;;;3.90;2.80;;;20.50;99.90;;;;;;5075357;28;20044;-74
2022/07/13 00:39:58;;;;;;;3.10;2.80;;;20.50;99.90;;;;;;5075554;28;20048;-74
2022/07/13 00:42:24;;;;;;;3.47;2.63;;;20.40;99.90;;;;;;5075897;28;20051;-75
2022/07/13 00:44:50;;;;;;;4.88;2.72;;;20.40;99.90;;;;;;5074881;28;20066;-74
2022/07/13 00:47:16;;;;;;;3.25;2.65;;;20.40;99.90;;;;;;5076216;28;20056;-74
2022/07/13 00:49:42;;;;;;;4.03;2.90;;;20.50;99.90;;;;;;5075503;28;20044;-74
2022/07/13 00:52:09;;;;;;;3.30;2.90;;;20.50;99.90;;;;;;5075275;28;20128;-74
2022/07/13 00:54:37;;;;;;;3.65;2.65;;;20.50;99.90;;;;;;5075404;28;20048;-75
2022/07/13 00:57:04;;;;;;;3.55;2.70;;;20.60;99.90;;;;;;5074286;28;20135;-75
2022/07/13 00:59:30;;;;;;;3.45;2.60;;;20.70;99.90;;;;;;5075276;28;20044;-75
2022/07/13 01:01:55;;;;;;;2.70;2.40;;;20.70;99.90;;;;;;5074980;28;20484;-75
2022/07/13 01:04:23;;;;;;;3.05;2.75;;;20.80;99.90;;;;;;5075434;28;20040;-74
2022/07/13 01:06:51;;;;;;;6.32;2.72;;;20.80;99.90;;;;;;5075062;28;20048;-75
2022/07/13 01:09:17;;;;;;;3.78;2.58;;;20.80;99.90;;;;;;5074785;28;20400;-75
2022/07/13 01:11:43;;;;;;;3.70;3.10;;;20.80;99.90;;;;;;5075073;28;20177;-74
2022/07/13 01:14:09;;;;;;;4.22;2.90;;;20.80;99.90;;;;;;5075229;28;20144;-74
2022/07/13 01:16:35;;;;;;;4.57;3.20;;;20.80;99.90;;;;;;5073900;28;20076;-75
2022/07/13 01:19:04;;;;;;;3.63;3.20;;;20.80;99.90;;;;;;5073830;28;20131;-74
2022/07/13 01:21:31;;;;;;;3.60;3.03;;;20.80;99.90;;;;;;5074820;28;20060;-75
2022/07/13 01:23:56;;;;;;;3.75;3.35;;;20.80;99.90;;;;;;5074434;28;20060;-75
2022/07/13 01:26:22;;;;;;;3.78;3.35;;;20.80;99.90;;;;;;5075275;28;20051;-75
2022/07/13 01:28:48;;;;;;;3.78;3.13;;;20.80;99.90;;;;;;5074354;28;20056;-74
2022/07/13 01:31:38;;;;;;;3.72;3.00;;;20.70;99.90;;;;;;5074546;28;20075;-75
2022/07/13 01:34:05;;;;;;;4.32;3.45;;;20.70;99.90;;;;;;5074092;28;20048;-74
2022/07/13 01:36:31;;;;;;;4.30;3.53;;;20.60;99.90;;;;;;5074448;28;20045;-74
2022/07/13 01:38:57;;;;;;;3.97;3.33;;;20.60;99.90;;;;;;5074425;28;20041;-74
2022/07/13 01:41:25;;;;;;;3.53;3.13;;;20.70;99.90;;;;;;5074387;28;20071;-75
2022/07/13 01:43:51;;;;;;;4.50;3.42;;;20.70;99.90;;;;;;5074380;28;20040;-75
2022/07/13 01:46:17;;;;;;;4.63;3.45;;;20.70;99.90;;;;;;5073956;28;20052;-74
2022/07/13 01:48:43;;;;;;;4.35;3.60;;;20.70;99.90;;;;;;5074169;28;20208;-74
2022/07/13 01:51:08;;;;;;;6.43;4.00;;;20.70;99.90;;;;;;5073844;28;20048;-75
2022/07/13 01:53:34;;;;;;;4.32;3.92;;;20.70;99.90;;;;;;5074571;28;20055;-74
2022/07/13 01:56:00;;;;;;;4.80;3.95;;;20.70;99.90;;;;;;5055840;28;20047;-75
2022/07/13 01:58:26;;;;;;;4.43;4.00;;;20.60;99.90;;;;;;5073948;28;20591;-75
2022/07/13 02:00:52;;;;;;;5.75;3.92;;;20.60;99.90;;;;;;5073940;28;20050;-75
2022/07/13 02:03:19;;;;;;;4.88;4.03;;;20.60;99.90;;;;;;5073954;28;20053;-75
2022/07/13 02:05:45;;;;;;;4.40;3.97;;;20.60;99.90;;;;;;5072934;28;20044;-74
2022/07/13 02:08:12;;;;;;;4.72;4.00;;;20.50;99.90;;;;;;5073816;28;20394;-74
2022/07/13 02:10:38;;;;;;;5.10;3.97;;;20.50;99.90;;;;;;5074316;28;20432;-74
2022/07/13 02:13:05;;;;;;;4.97;4.32;;;20.40;99.90;;;;;;5073706;28;20045;-74
2022/07/13 02:15:31;;;;;;;5.20;4.57;;;20.30;99.90;;;;;;5072708;28;20057;-75
2022/07/13 02:17:57;;;;;;;5.70;4.50;;;20.30;99.90;;;;;;5074186;28;20045;-74
2022/07/13 02:20:22;;;;;;;4.35;3.95;;;20.30;99.90;;;;;;5073708;28;20393;-75
2022/07/13 02:22:48;;;;;;;5.57;4.15;;;20.30;99.90;;;;;;5073698;28;20032;-74
2022/07/13 02:25:14;;;;;;;5.90;4.13;;;20.30;99.90;;;;;;5073295;28;20114;-74
2022/07/13 02:27:41;;;;;;;4.95;4.43;;;20.30;99.90;;;;;;5074370;28;20366;-75
2022/07/13 02:30:08;;;;;;;6.57;4.47;;;20.30;99.90;;;;;;5072372;28;20052;-75
2022/07/13 02:32:33;;;;;;;5.85;4.55;;;20.30;99.90;;;;;;5072254;28;20154;-75
2022/07/13 02:34:59;;;;;;;5.43;4.43;;;20.30;99.90;;;;;;5073223;28;20510;-76
2022/07/13 02:37:25;;;;;;;5.65;4.68;;;20.30;99.90;;;;;;5072432;28;20156;-76
2022/07/13 02:39:53;;;;;;;5.50;4.60;;;20.40;99.90;;;;;;5073466;28;20057;-75
2022/07/13 02:42:18;;;;;;;5.43;4.82;;;20.40;99.90;;;;;;5073479;28;20059;-76
2022/07/13 02:44:44;;;;;;;4.75;4.25;;;20.40;99.90;;;;;;5073366;28;20044;-74
2022/07/13 02:47:10;;;;;;;4.68;4.18;;;20.30;99.90;;;;;;5074287;28;20048;-74
2022/07/13 02:49:35;;;;;;;6.53;4.65;;;20.30;99.90;;;;;;5073278;28;20215;-74
2022/07/13 02:52:01;;;;;;;7.70;5.47;;;20.20;99.90;;;;;;5073208;28;20044;-74
2022/07/13 02:54:27;;;;;;;5.45;4.85;;;20.10;99.90;;;;;;5073307;28;20048;-74
2022/07/13 02:56:55;;;;;;;6.18;4.63;;;20.10;99.90;;;;;;5073521;28;20051;-74
2022/07/13 02:59:21;;;;;;;7.82;4.97;;;20.10;99.90;;;;;;5073906;28;20061;-74
2022/07/13 03:01:46;;;;;;;5.85;5.25;;;20.10;99.90;;;;;;5072891;28;20119;-74
2022/07/13 03:04:12;;;;;;;5.65;4.93;;;20.10;99.90;;;;;;5073117;28;20485;-74
2022/07/13 03:06:38;;;;;;;6.40;4.95;;;20.00;99.90;;;;;;5075519;28;20059;-75
2022/07/13 03:09:03;;;;;;;5.93;4.85;;;20.00;99.90;;;;;;5078602;28;20055;-74
2022/07/13 03:11:29;;;;;;;6.18;5.35;;;20.10;99.90;;;;;;5080508;28;20052;-74
2022/07/13 03:13:55;;;;;;;5.80;4.60;;;20.10;99.90;;;;;;5079899;28;20044;-74
2022/07/13 03:16:20;;;;;;;5.45;4.50;;;20.10;99.90;;;;;;5079738;28;20477;-74
2022/07/13 03:18:46;;;;;;;6.28;4.82;;;20.00;99.90;;;;;;5078633;28;20040;-74
2022/07/13 03:21:12;;;;;;;5.60;4.70;;;20.00;99.90;;;;;;5079817;28;20094;-74
2022/07/13 03:23:38;;;;;;;6.93;4.40;;;20.00;99.90;;;;;;5079614;28;20044;-74
2022/07/13 03:26:04;;;;;;;5.53;4.60;;;20.10;99.90;;;;;;5079500;28;20043;-74
2022/07/13 03:28:29;;;;;;;6.30;4.57;;;20.00;99.90;;;;;;5079984;28;20048;-75
2022/07/13 03:30:55;;;;;;;5.25;4.55;;;20.10;99.90;;;;;;5078641;28;20075;-75
2022/07/13 03:33:20;;;;;;;5.00;4.30;;;20.10;99.90;;;;;;5079349;28;20474;-74
2022/07/13 03:35:46;;;;;;;5.30;4.50;;;20.10;99.90;;;;;;5079431;28;20514;-74
2022/07/13 03:38:12;;;;;;;5.50;4.85;;;20.10;99.90;;;;;;5078851;28;20040;-74
2022/07/13 03:40:37;;;;;;;5.18;4.68;;;20.10;99.90;;;;;;5079982;28;20040;-74
2022/07/13 03:43:03;;;;;;;5.47;4.60;;;20.10;99.90;;;;;;5080006;28;20435;-74
2022/07/13 03:45:29;;;;;;;6.13;4.80;;;20.10;99.90;;;;;;5079373;28;20081;-74
2022/07/13 03:47:55;;;;;;;6.80;4.65;;;20.10;99.90;;;;;;5079622;28;20071;-74
2022/07/13 03:50:21;;;;;;;5.03;4.47;;;20.10;99.90;;;;;;5079916;28;20477;-74
2022/07/13 03:52:46;;;;;;;6.05;4.47;;;20.10;99.90;;;;;;5079340;28;20432;-74
2022/07/13 03:55:14;;;;;;;5.35;4.45;;;20.10;99.90;;;;;;5079361;28;20051;-74
2022/07/13 03:57:40;;;;;;;6.00;4.65;;;20.10;99.90;;;;;;5079220;28;20068;-74
2022/07/13 04:00:07;;;;;;;6.18;4.70;;;20.10;99.90;;;;;;5080194;28;20060;-74
2022/07/13 04:02:33;;;;;;;5.25;4.50;;;20.10;99.90;;;;;;5062584;28;20056;-75
2022/07/13 04:04:59;;;;;;;5.07;4.50;;;20.10;99.90;;;;;;5079273;28;20044;-75
2022/07/13 04:07:24;;;;;;;6.28;4.70;;;20.20;99.90;;;;;;5079797;28;20049;-75
2022/07/13 04:09:50;;;;;;;4.95;4.25;;;20.20;99.90;;;;;;5079272;28;20131;-76
2022/07/13 04:12:22;;;;;;;6.03;4.22;;;20.20;99.90;;;;;;5079639;28;20084;-75
2022/07/13 04:14:50;;;;;;;4.97;3.85;;;20.20;99.90;;;;;;5078875;28;20477;-75
2022/07/13 04:17:16;;;;;;;5.57;4.05;;;20.30;99.90;;;;;;5079017;28;20045;-75
2022/07/13 04:19:42;;;;;;;5.03;4.25;;;20.30;99.90;;;;;;5074234;28;20063;-75
2022/07/13 04:22:08;;;;;;;5.63;3.88;;;20.30;99.90;;;;;;5076392;28;20427;-75
2022/07/13 04:24:33;;;;;;;4.00;3.45;;;20.30;99.90;;;;;;5075195;28;20366;-75
2022/07/13 04:26:59;;;;;;;4.47;3.58;;;20.40;99.90;;;;;;5075911;28;20052;-75
2022/07/13 04:29:25;;;;;;;4.28;3.65;;;20.40;99.90;;;;;;5076595;28;20373;-74
2022/07/13 04:31:50;;;;;;;4.47;3.55;;;20.40;99.90;;;;;;5076285;28;20094;-75
2022/07/13 04:34:17;;;;;;;4.40;3.60;;;20.40;99.90;;;;;;5075888;28;20049;-75
2022/07/13 04:36:43;;;;;;;4.22;3.05;;;20.40;99.90;;;;;;5075685;28;20041;-74
2022/07/13 04:39:09;;;;;;;3.97;2.97;;;20.50;99.90;;;;;;5074678;28;20052;-75
2022/07/13 04:41:35;;;;;;;4.03;3.25;;;20.50;99.90;;;;;;5057728;28;20121;-75
2022/07/13 04:44:01;;;;;;;4.72;2.80;;;20.50;99.90;;;;;;5075563;28;20041;-74
2022/07/13 04:46:27;;;;;;;8.60;3.13;;;20.50;99.90;;;;;;5075504;28;20132;-74
2022/07/13 04:48:53;;;;;;;3.92;3.17;;;20.50;99.90;;;;;;5075477;28;20049;-74
2022/07/13 04:51:19;;;;;;;3.35;2.58;;;20.50;99.90;;;;;;5075205;28;20099;-74
2022/07/13 04:53:45;;;;;;;3.47;2.70;;;20.50;99.90;;;;;;5075385;28;20080;-75
2022/07/13 04:56:12;;;;;;;3.38;2.60;;;20.60;99.90;;;;;;5075282;28;20045;-74
2022/07/13 04:58:38;;;;;;;3.97;2.83;;;20.60;99.90;;;;;;5074927;28;20091;-74
2022/07/13 05:01:06;;;;;;;3.40;2.70;;;20.60;99.90;;;;;;5075193;28;20048;-75
2022/07/13 05:03:36;;;;;;;3.50;2.78;;;20.70;99.90;;;;;;5073890;28;20489;-76
2022/07/13 05:06:02;;;;;;;3.80;3.10;;;20.70;99.90;;;;;;5075963;28;20091;-76
2022/07/13 05:08:28;;;;;;;3.75;2.55;;;20.80;99.90;;;;;;5073860;28;20454;-76
2022/07/13 05:10:54;;;;;;;3.38;2.53;;;20.80;99.90;;;;;;5074813;28;20091;-76
2022/07/13 05:13:20;;;;;;;3.63;2.80;;;20.90;99.90;;;;;;5074100;28;20389;-76
2022/07/13 05:15:45;;;;;;;3.53;2.60;;;20.90;99.90;;;;;;5075412;28;20056;-76
2022/07/13 05:18:12;;;;;;;4.28;2.40;;;20.90;99.90;;;;;;5075084;28;20495;-74
2022/07/13 05:20:37;;;;;;;3.22;2.55;;;20.90;99.90;;;;;;5074867;28;20049;-75
2022/07/13 05:23:03;;;;;;;3.58;2.60;;;20.90;99.90;;;;;;5073596;28;20033;-76
2022/07/13 05:25:29;;;;;;;3.67;2.80;;;21.00;99.90;;;;;;5074427;28;20485;-75
2022/07/13 05:27:55;;;;;;;3.75;2.75;;;21.00;99.90;;;;;;5073734;28;20265;-75
2022/07/13 05:30:21;;;;;;;3.33;2.65;;;21.00;99.90;;;;;;5073250;28;20040;-75
2022/07/13 05:32:47;;;;;;;3.65;2.83;;;21.10;99.90;;;;;;5073393;28;20049;-76
2022/07/13 05:35:13;;;;;;;3.90;2.50;;;21.00;99.90;;;;;;5074475;28;20059;-75
2022/07/13 05:37:39;;;;;;;3.47;2.42;;;21.10;99.90;;;;;;5073758;28;20050;-74
2022/07/13 05:40:05;;;;;;;3.35;2.75;;;21.10;99.90;;;;;;5074938;28;20049;-74
2022/07/13 05:42:31;;;;;;;3.80;2.60;;;21.10;99.90;;;;;;5074327;28;20048;-74
2022/07/13 05:44:57;;;;;;;3.35;2.50;;;21.10;99.90;;;;;;5073968;28;20102;-76
2022/07/13 05:47:23;;;;;;;3.17;2.80;;;21.10;99.90;;;;;;5074718;28;20045;-76
2022/07/13 05:49:49;;;;;;;3.70;2.42;;;21.10;99.90;;;;;;5074151;28;20052;-76
2022/07/13 05:52:17;;;;;;;3.75;2.90;;;21.10;99.90;;;;;;5074146;28;20170;-74
2022/07/13 05:54:43;;;;;;;4.05;2.80;;;21.20;99.90;;;;;;5073219;28;20490;-76
2022/07/13 05:57:09;;;;;;;3.95;2.58;;;21.20;99.90;;;;;;5074084;28;20048;-76
2022/07/13 05:59:34;;;;;;;3.13;2.50;;;21.30;99.90;;;;;;5073850;28;20056;-76
2022/07/13 06:02:00;;;;;;;3.25;2.22;;;21.30;99.90;;;;;;5073974;28;20079;-76
2022/07/13 06:04:26;;;;;;;2.97;2.30;;;21.40;99.90;;;;;;5074216;28;20083;-74
2022/07/13 06:06:52;;;;;;;4.05;2.63;;;21.50;99.90;;;;;;5073650;28;20393;-76
2022/07/13 06:09:18;;;;;;;3.38;2.30;;;21.60;99.90;;;;;;5073602;28;20117;-69
2022/07/13 06:11:46;;;;;;;5.38;2.70;;;21.60;99.90;;;;;;5073874;28;20044;-68
2022/07/13 06:14:12;;;;;;;4.07;2.90;;;21.60;99.90;;;;;;5073730;28;20037;-69
2022/07/13 06:16:38;;;;;;;3.80;3.20;;;21.60;99.90;;;;;;5073380;28;20060;-68
2022/07/13 06:19:03;;;;;;;3.72;3.20;;;21.60;99.90;;;;;;5074494;28;20131;-68
2022/07/13 06:21:29;;;;;;;4.13;3.10;;;21.60;99.90;;;;;;5074181;28;20128;-69
2022/07/13 06:23:55;;;;;;;4.30;2.90;;;21.70;99.90;;;;;;5073690;28;20044;-68
2022/07/13 06:26:20;;;;;;;3.97;2.92;;;21.70;99.90;;;;;;5073516;28;20474;-69
2022/07/13 06:28:46;;;;;;;3.63;3.03;;;21.70;99.90;;;;;;5073816;28;20476;-69
2022/07/13 06:31:12;;;;;;;4.40;3.60;;;21.80;99.90;;;;;;5073564;28;20469;-69
2022/07/13 06:33:37;;;;;;;3.88;3.10;;;21.80;99.90;;;;;;5073381;28;20475;-68
2022/07/13 06:36:03;;;;;;;3.97;3.40;;;21.80;99.90;;;;;;5073534;28;20060;-68
2022/07/13 06:38:29;;;;;;;3.35;2.97;;;21.80;99.90;;;;;;5073496;28;20041;-68
2022/07/13 06:40:54;;;;;;;3.30;2.72;;;21.80;99.90;;;;;;5072985;28;20131;-68
2022/07/13 06:43:21;;;;;;;3.65;2.97;;;21.80;99.90;;;;;;5073392;28;20071;-68
2022/07/13 06:45:47;;;;;;;3.83;2.80;;;21.90;99.90;;;;;;5072116;28;20071;-68
2022/07/13 06:48:14;;;;;;;3.83;2.97;;;21.90;99.90;;;;;;5073060;28;20040;-69
2022/07/13 06:50:40;;;;;;;3.38;2.72;;;21.90;99.90;;;;;;5073342;28;20048;-69
2022/07/13 06:53:05;;;;;;;3.80;2.42;;;22.00;99.90;;;;;;5073280;28;20045;-69
2022/07/13 06:55:31;;;;;;;3.13;2.63;;;22.10;99.90;;;;;;5073305;28;20355;-68
2022/07/13 06:57:57;;;;;;;3.90;2.70;;;22.10;99.90;;;;;;5072559;28;20076;-69
2022/07/13 07:00:23;;;;;;;3.25;2.63;;;22.20;99.90;;;;;;5073898;28;20055;-69
2022/07/13 07:02:48;;;;;;;3.22;2.45;;;22.30;99.90;;;;;;5072342;28;20368;-69
2022/07/13 07:05:14;;;;;;;3.20;2.58;;;22.30;99.90;;;;;;5072263;28;20040;-69
2022/07/13 07:07:41;;;;;;;3.45;2.60;;;22.40;99.90;;;;;;5072338;28;20041;-68
2022/07/13 07:10:08;;;;;;;2.83;2.30;;;22.40;99.90;;;;;;5073309;28;20102;-68
2022/07/13 07:12:35;;;;;;;3.97;2.40;;;22.50;99.90;;;;;;5072807;28;20132;-67
2022/07/13 07:15:01;;;;;;;4.50;2.60;;;22.50;99.90;;;;;;5073339;28;20117;-68
2022/07/13 07:17:26;;;;;;;4.38;2.55;;;22.60;99.90;;;;;;5072678;28;20131;-68
2022/07/13 07:19:58;;;;;;;3.70;2.80;;;22.70;99.90;;;;;;5073749;28;20115;-68
2022/07/13 07:22:24;;;;;;;5.00;2.65;;;23.00;99.90;;;;;;5072930;28;20048;-68
2022/07/13 07:24:51;;;;;;;3.40;2.45;;;23.20;99.90;;;;;;5072896;28;20050;-69
2022/07/13 07:27:17;;;;;;;3.95;2.90;;;23.30;99.90;;;;;;5072803;28;20143;-69
2022/07/13 07:29:43;;;;;;;4.10;2.75;;;23.50;99.90;;;;;;5072890;28;20040;-69
2022/07/13 07:32:08;;;;;;;3.88;2.85;;;23.60;99.90;;;;;;5072812;28;20043;-68
2022/07/13 07:34:34;;;;;;;3.55;2.60;;;23.80;99.90;;;;;;5073368;28;20428;-68
2022/07/13 07:37:01;;;;;;;4.10;2.85;;;23.80;99.90;;;;;;5071539;28;20086;-69
2022/07/13 07:39:26;;;;;;;3.53;2.67;;;23.70;99.90;;;;;;5072772;28;20488;-68
2022/07/13 07:41:53;;;;;;;3.70;2.70;;;23.60;99.90;;;;;;5072757;28;20048;-68
2022/07/13 07:44:19;;;;;;;3.85;2.97;;;23.50;99.90;;;;;;5072984;28;20044;-68
2022/07/13 07:46:45;;;;;;;4.97;3.55;;;23.40;99.90;;;;;;5072674;28;20037;-68
2022/07/13 07:49:10;;;;;;;4.55;3.10;;;23.40;99.90;;;;;;5073178;28;20119;-69
2022/07/13 07:51:36;;;;;;;4.20;3.03;;;23.30;99.90;;;;;;5071471;28;20506;-68
2022/07/13 07:54:02;;;;;;;3.83;2.85;;;23.20;99.90;;;;;;5074194;28;20036;-69
2022/07/13 07:56:28;;;;;;;4.13;2.85;;;23.20;99.90;;;;;;5076444;28;20087;-68
2022/07/13 07:58:53;;;;;;;4.40;2.83;;;23.20;99.90;;;;;;5075949;28;20044;-67
2022/07/13 08:01:19;;;;;;;4.45;3.25;;;23.20;99.90;;;;;;5076369;28;20044;-67
2022/07/13 08:03:45;;;;;;;3.95;3.10;;;23.20;99.90;;;;;;5091959;28;20527;-67
2022/07/13 08:06:11;;;;;;;4.75;3.50;;;23.20;99.90;;;;;;5075218;28;20079;-67
2022/07/13 08:08:38;;;;;;;4.20;3.20;;;23.30;99.90;;;;;;5076454;28;20491;-67
2022/07/13 08:11:04;;;;;;;6.57;3.50;;;23.30;99.90;;;;;;5074994;28;20036;-67
2022/07/13 08:13:30;;;;;;;4.30;3.13;;;23.30;99.90;;;;;;5076218;28;20036;-67
2022/07/13 08:15:56;;;;;;;5.43;3.58;;;23.30;99.90;;;;;;5076483;28;20048;-67
2022/07/13 08:18:22;;;;;;;4.72;3.55;;;23.30;99.90;;;;;;5076786;28;20044;-68
2022/07/13 08:20:48;;;;;;;5.15;3.92;;;23.30;99.90;;;;;;5075947;28;20507;-67
2022/07/13 08:25:57;;;;;;;8.27;3.97;;;23.50;99.90;;;;;;5075843;28;20131;-67
2022/07/13 08:28:23;;;;;;;5.60;3.65;;;23.60;99.90;;;;;;5075884;28;20087;-68
2022/07/13 08:30:49;;;;;;;4.85;3.88;;;23.70;99.90;;;;;;5076289;28;20431;-69
2022/07/13 08:33:15;;;;;;;5.57;3.65;;;23.80;99.90;;;;;;5075583;28;20143;-67
2022/07/13 08:38:38;;;;;;;4.10;3.53;;;23.90;99.90;;;;;;5075982;28;20136;-68
2022/07/13 08:41:04;;;;;;;4.40;3.50;;;24.10;99.90;;;;;;5074548;28;20426;-69
2022/07/13 08:43:31;;;;;;;4.18;3.30;;;24.20;99.90;;;;;;5076058;28;20139;-69
2022/07/13 08:45:57;;;;;;;4.32;3.50;;;24.40;99.90;;;;;;5075424;28;20056;-69
2022/07/13 08:48:31;;;;;;;4.68;3.80;;;24.50;99.90;;;;;;5075477;28;20082;-69
2022/07/13 08:50:57;;;;;;;4.95;3.63;;;24.70;99.90;;;;;;5075959;28;20036;-69
2022/07/13 08:53:24;;;;;;;3.55;2.85;;;24.80;99.90;;;;;;5075570;28;20059;-69
2022/07/13 08:55:50;;;;;;;4.25;3.17;;;24.90;99.90;;;;;;5075887;28;20045;-69
2022/07/13 08:58:17;;;;;;;4.30;3.50;;;25.00;99.90;;;;;;5075372;28;20060;-68
2022/07/13 09:00:45;;;;;;;4.03;3.20;;;25.00;99.90;;;;;;5074106;28;20065;-69
2022/07/13 09:03:10;;;;;;;4.88;3.53;;;25.00;99.90;;;;;;5075148;28;20041;-68
2022/07/13 09:05:36;;;;;;;5.78;3.40;;;25.10;99.90;;;;;;5075095;28;20041;-68
2022/07/13 09:08:07;;;;;;;5.43;3.40;;;25.10;99.90;;;;;;5075155;28;20036;-69
2022/07/13 09:10:50;;;;;;;5.07;3.17;;;25.20;99.90;;;;;;5075109;28;20067;-69
2022/07/13 09:13:44;;;;;;;4.43;3.35;;;25.30;99.90;;;;;;5074868;28;20044;-69
2022/07/13 09:16:15;;;;;;;4.65;3.13;;;25.40;99.90;;;;;;5075298;28;20082;-69
2022/07/13 09:18:43;;;;;;;4.93;3.40;;;25.40;99.90;;;;;;5074281;28;20123;-68
2022/07/13 09:21:09;;;;;;;4.35;3.22;;;25.50;99.90;;;;;;5074622;28;20051;-68
2022/07/13 09:23:34;;;;;;;4.63;3.30;;;25.50;99.90;;;;;;5074705;28;20052;-68
2022/07/13 09:26:00;;;;;;;5.32;3.58;;;25.50;99.90;;;;;;5073727;28;20346;-68
2022/07/13 09:28:26;;;;;;;6.75;4.10;;;25.50;99.90;;;;;;5075180;28;20185;-68
2022/07/13 09:30:58;;;;;;;17.55;4.88;;;25.60;99.90;;;;;;5075239;28;20051;-67
2022/07/13 09:33:38;;;;;;;4.63;3.03;;;25.60;99.90;;;;;;5074422;28;20036;-68
2022/07/13 09:36:15;;;;;;;4.47;3.58;;;25.70;99.90;;;;;;5074451;28;20490;-68
2022/07/13 09:38:46;;;;;;;3.80;3.00;;;25.80;99.90;;;;;;5074423;28;20073;-68
2022/07/13 09:41:16;;;;;;;4.82;3.40;;;25.80;99.90;;;;;;5074740;28;20109;-68
2022/07/13 09:47:01;;;;;;;6.00;4.03;;;26.00;99.90;;;;;;5074800;28;20055;-68
2022/07/13 09:49:45;;;;;;;6.57;3.58;;;26.10;99.90;;;;;;5074151;28;20040;-68
2022/07/13 09:52:12;;;;;;;5.57;3.70;;;26.10;99.90;;;;;;5074028;28;20048;-68
2022/07/13 09:54:40;;;;;;;4.60;3.20;;;26.10;99.90;;;;;;5074132;28;20148;-68
2022/07/13 09:57:09;;;;;;;4.63;3.78;;;26.10;99.90;;;;;;5073998;28;20059;-68
2022/07/13 09:59:42;;;;;;;5.15;3.35;;;26.10;99.90;;;;;;5074284;28;20465;-68
2022/07/13 10:02:09;;;;;;;4.57;3.55;;;26.10;99.90;;;;;;5075106;28;20040;-68
2022/07/13 10:04:35;;;;;;;6.07;3.15;;;26.10;99.90;;;;;;5072918;28;20504;-68
2022/07/13 10:07:03;;;;;;;3.95;3.03;;;26.10;99.90;;;;;;5073999;28;20040;-67
2022/07/13 10:09:32;;;;;;;5.13;3.22;;;26.20;99.90;;;;;;5073931;28;20119;-68
2022/07/13 10:11:59;;;;;;;5.47;3.33;;;26.30;99.90;;;;;;5074280;28;20380;-69
2022/07/13 10:14:26;;;;;;;4.57;3.08;;;26.30;99.90;;;;;;5073212;28;20040;-68
2022/07/13 10:17:01;;;;;;;4.55;3.15;;;26.30;99.90;;;;;;5073174;28;20558;-67
2022/07/13 10:19:29;;;;;;;4.72;2.70;;;26.30;99.90;;;;;;5073997;28;20061;-67
2022/07/13 10:22:08;;;;;;;3.67;2.85;;;26.50;99.90;;;;;;5073631;28;20047;-67
2022/07/13 10:24:34;;;;;;;4.93;2.72;;;26.50;99.90;;;;;;5073978;28;20040;-67
2022/07/13 10:27:26;;;;;;;5.65;3.10;;;26.70;99.90;;;;;;5073574;28;20048;-68
2022/07/13 10:29:56;;;;;;;3.40;2.70;;;26.80;99.90;;;;;;5073538;28;20488;-68
2022/07/13 10:32:25;;;;;;;4.13;2.70;;;26.80;99.90;;;;;;5073983;28;20037;-68
2022/07/13 10:34:54;;;;;;;3.53;2.47;;;26.90;99.90;;;;;;5074033;28;20041;-68
2022/07/13 10:37:20;;;;;;;4.50;3.03;;;26.90;99.90;;;;;;5073466;28;20047;-68
2022/07/13 10:40:22;;;;;;;3.30;2.58;;;26.90;99.90;;;;;;5073438;28;20048;-68
2022/07/13 10:42:53;;;;;;;4.50;2.75;;;27.00;99.90;;;;;;5051237;28;20044;-68
2022/07/13 10:45:40;;;;;;;3.45;2.60;;;26.90;99.90;;;;;;5069309;28;20052;-67
2022/07/13 10:48:32;;;;;;;4.50;2.40;;;27.00;99.90;;;;;;5073649;28;20409;-67
2022/07/13 10:50:59;;;;;;;3.72;2.42;;;27.10;99.90;;;;;;5073528;28;20487;-67
2022/07/13 10:53:41;;;;;;;3.33;2.25;;;27.20;99.90;;;;;;5073198;28;20047;-68
2022/07/13 10:56:21;;;;;;;2.95;2.05;;;27.40;99.90;;;;;;5073183;28;20044;-67
2022/07/13 10:58:49;;;;;;;3.78;2.25;;;27.50;99.90;;;;;;5073181;28;20056;-67
2022/07/13 11:01:40;;;;;;;3.85;2.35;;;27.60;99.90;;;;;;5073077;28;20040;-67
2022/07/13 11:04:08;;;;;;;3.65;2.17;;;27.50;99.90;;;;;;5073242;28;20056;-67
2022/07/13 11:06:34;;;;;;;2.60;2.00;;;27.40;99.90;;;;;;5073525;28;20051;-66
2022/07/13 11:09:11;;;;;;;2.58;1.83;;;27.50;99.90;;;;;;5073108;28;20128;-66
2022/07/13 11:11:53;;;;;;;2.83;1.95;;;27.50;99.90;;;;;;5072752;28;20549;-67
2022/07/13 11:14:39;;;;;;;4.07;2.03;;;27.50;99.90;;;;;;5072537;28;20096;-69
2022/07/13 11:17:23;;;;;;;3.22;1.73;;;27.30;99.90;;;;;;5073005;28;20477;-73
2022/07/13 11:20:03;;;;;;;2.63;1.70;;;27.20;99.90;;;;;;5073721;28;20137;-67
2022/07/13 11:25:45;;;;;;;3.15;1.75;;;27.20;99.90;;;;;;5072892;28;20071;-67
2022/07/13 11:28:20;;;;;;;;;;;27.20;99.90;;;;;;5074944;28;20052;-67
2022/07/13 11:30:53;;;;;;;2.55;1.52;;;27.40;99.90;;;;;;5077187;28;19943;-67
2022/07/13 11:33:19;;;;;;;2.28;1.50;;;27.50;99.90;;;;;;5059800;28;20045;-67
2022/07/13 11:35:46;;;;;;;2.22;1.42;;;27.60;99.90;;;;;;5075555;28;20147;-67
2022/07/13 11:38:16;;;;;;;3.05;1.38;;;27.80;99.90;;;;;;5077075;28;20053;-67
2022/07/13 11:40:44;;;;;;;4.20;1.55;;;27.90;99.90;;;;;;5076362;28;20040;-68
2022/07/13 11:43:10;;;;;;;2.53;1.75;;;28.10;99.90;;;;;;5076365;28;20043;-68
2022/07/13 11:45:39;;;;;;;1.80;1.25;;;28.10;99.90;;;;;;5076680;28;20055;-68
2022/07/13 11:48:09;;;;;;;2.08;1.60;;;27.90;99.90;;;;;;5077007;28;20048;-68
2022/07/13 11:50:46;;;;;;;2.90;1.55;;;27.80;99.90;;;;;;5076084;28;20092;-67
2022/07/13 11:53:22;;;;;;;2.00;1.30;;;27.60;99.90;;;;;;5076468;28;20117;-67
2022/07/13 11:55:48;;;;;;;2.00;1.20;;;27.50;99.90;;;;;;5076121;28;20465;-67
2022/07/13 11:58:27;;;;;;;2.80;1.27;;;27.70;99.90;;;;;;5076246;28;20056;-68
2022/07/13 12:00:53;;;;;;;2.42;1.40;;;27.80;99.90;;;;;;5076822;28;20114;-68
2022/07/13 12:03:32;;;;;;;3.38;1.60;;;27.80;99.90;;;;;;5075808;28;20489;-67
2022/07/13 12:06:05;;;;;;;2.97;1.20;;;27.70;99.90;;;;;;5076429;28;20378;-67
2022/07/13 12:08:33;;;;;;;2.88;1.23;;;27.60;99.90;;;;;;5058506;28;20139;-67
2022/07/13 12:11:00;;;;;;;1.80;1.20;;;27.60;99.90;;;;;;5075863;28;20045;-66
2022/07/13 12:13:26;;;;;;;2.33;1.27;;;27.70;99.90;;;;;;5075616;28;20037;-67
2022/07/13 12:15:52;;;;;;;2.50;1.83;;;27.90;99.90;;;;;;5075719;28;20102;-67
2022/07/13 12:18:17;;;;;;;2.00;1.10;;;27.90;99.90;;;;;;5076332;28;20428;-68
2022/07/13 12:20:43;;;;;;;3.17;1.50;;;27.70;99.90;;;;;;5075915;28;20044;-69
2022/07/13 12:23:09;;;;;;;2.33;1.30;;;27.50;99.90;;;;;;5076384;28;20040;-66
2022/07/13 12:25:37;;;;;;;2.40;1.40;;;27.30;99.90;;;;;;5076494;28;20044;-66
2022/07/13 12:28:05;;;;;;;2.85;1.52;;;27.20;99.90;;;;;;5075782;28;20097;-66
2022/07/13 12:30:33;;;;;;;2.97;1.45;;;27.10;99.90;;;;;;5076015;28;20140;-66
2022/07/13 12:33:04;;;;;;;2.53;1.30;;;27.20;99.90;;;;;;5074493;28;20049;-67
2022/07/13 12:35:38;;;;;;;2.72;1.38;;;27.40;99.90;;;;;;5075662;28;20044;-66
2022/07/13 12:38:16;;;;;;;2.33;1.15;;;27.70;99.90;;;;;;5074671;28;20545;-66
2022/07/13 12:40:52;;;;;;;2.30;1.35;;;27.80;99.90;;;;;;5075302;28;20102;-66
2022/07/13 12:43:26;;;;;;;3.40;1.33;;;27.80;99.90;;;;;;5075891;28;20451;-66
2022/07/13 12:45:52;;;;;;;2.85;1.30;;;27.80;99.90;;;;;;5074835;28;20055;-66
2022/07/13 12:48:23;;;;;;;4.10;1.40;;;27.70;99.90;;;;;;5074494;28;20071;-67
2022/07/13 12:50:59;;;;;;;2.80;1.50;;;27.60;99.90;;;;;;5076145;28;20044;-66
2022/07/13 12:53:43;;;;;;;2.55;1.52;;;27.50;99.90;;;;;;5075175;28;20044;-67
2022/07/13 12:56:09;;;;;;;3.42;1.52;;;27.50;99.90;;;;;;5075092;28;20049;-67
2022/07/13 12:58:40;;;;;;;2.15;1.33;;;27.50;99.90;;;;;;5073960;28;20075;-67
2022/07/13 13:01:07;;;;;;;2.97;1.40;;;27.50;99.90;;;;;;5075102;28;20053;-67
2022/07/13 13:03:32;;;;;;;2.97;1.38;;;27.50;99.90;;;;;;5074941;28;20041;-66